Time,TemperatureF,DewpointF,PressureIn,WindDirection,WindDirectionDegrees,WindSpeedMPH,WindSpeedGustMPH,Humidity,HourlyPrecipIn,Conditions,Clouds,dailyrainin,SoftwareType,DateUTC
2013-01-13 00:01:00,52.0,47.0,29.24,North,0,0.0,0.0,83,0.00,,,0.00,WUHU21623XXSP,2013-01-13 05:01:00,
2013-01-13 00:03:00,52.0,47.0,29.24,North,0,0.0,0.0,83,0.00,,,0.00,WUHU21623XXSP,2013-01-13 05:03:00,
2013-01-13 00:10:00,52.0,47.0,29.25,North,0,0.0,0.0,83,0.00,,,0.00,WUHU21623XXSP,2013-01-13 05:10:00,
2013-01-13 00:15:00,51.8,47.1,29.24,NNE,22,0.0,0.0,84,0.00,,,0.00,WUHU21623XXSP,2013-01-13 05:15:00,
2013-01-13 00:20:00,51.6,47.2,29.25,NNE,22,0.0,0.0,85,0.00,,,0.00,WUHU21623XXSP,2013-01-13 05:20:00,
2013-01-13 00:25:00,52.0,47.6,29.24,NE,45,0.0,0.0,85,0.00,,,0.00,WUHU21623XXSP,2013-01-13 05:25:00,
2013-01-13 00:30:00,51.8,47.4,29.23,North,0,0.0,0.0,85,0.00,,,0.00,WUHU21623XXSP,2013-01-13 05:30:00,
2013-01-13 00:35:00,51.6,47.5,29.21,NNE,22,1.8,1.8,86,0.00,,,0.00,WUHU21623XXSP,2013-01-13 05:35:00,
2013-01-13 00:40:00,51.8,47.7,29.21,NE,45,3.1,3.1,86,0.00,,,0.00,WUHU21623XXSP,2013-01-13 05:40:00,
2013-01-13 00:45:00,51.6,47.5,29.21,NE,45,1.8,3.1,86,0.00,,,0.00,WUHU21623XXSP,2013-01-13 05:45:00,
2013-01-13 00:50:00,51.3,47.2,29.21,NE,45,2.5,4.9,86,0.00,,,0.00,WUHU21623XXSP,2013-01-13 05:50:00,
2013-01-13 00:55:00,51.3,47.2,29.21,NE,45,4.9,4.9,86,0.02,,,0.00,WUHU21623XXSP,2013-01-13 05:55:00,
2013-01-13 01:00:00,50.7,46.6,29.20,NNE,22,0.0,4.9,86,0.02,,,0.02,WUHU21623XXSP,2013-01-13 06:00:00,
2013-01-13 01:05:00,50.4,46.3,29.19,NNE,22,0.0,3.1,86,0.02,,,0.02,WUHU21623XXSP,2013-01-13 06:05:00,
2013-01-13 01:10:00,50.2,45.8,29.19,NNE,22,0.0,0.7,85,0.02,,,0.02,WUHU21623XXSP,2013-01-13 06:10:00,
2013-01-13 01:15:00,49.5,44.8,29.19,North,0,5.4,5.4,84,0.04,,,0.04,WUHU21623XXSP,2013-01-13 06:15:00,
2013-01-13 01:20:00,48.7,43.8,29.19,NNE,22,6.7,6.7,83,0.06,,,0.04,WUHU21623XXSP,2013-01-13 06:20:00,
2013-01-13 01:25:00,48.4,42.7,29.19,North,0,8.3,8.3,81,0.06,,,0.06,WUHU21623XXSP,2013-01-13 06:25:00,
2013-01-13 01:30:00,48.0,42.1,29.20,North,0,6.0,8.3,80,0.06,,,0.06,WUHU21623XXSP,2013-01-13 06:30:00,
2013-01-13 01:35:00,47.5,41.3,29.19,NE,45,1.8,6.0,79,0.06,,,0.06,WUHU21623XXSP,2013-01-13 06:35:00,
2013-01-13 01:40:00,47.1,40.6,29.19,NE,45,1.3,7.2,78,0.08,,,0.08,WUHU21623XXSP,2013-01-13 06:40:00,
2013-01-13 01:45:00,46.8,40.6,29.18,NNE,22,1.6,7.2,79,0.08,,,0.08,WUHU21623XXSP,2013-01-13 06:45:00,
2013-01-13 01:50:00,46.6,40.1,29.18,ENE,67,0.0,1.6,78,0.08,,,0.08,WUHU21623XXSP,2013-01-13 06:50:00,
2013-01-13 01:55:00,46.2,39.8,29.17,NE,45,0.0,3.6,78,0.08,,,0.08,WUHU21623XXSP,2013-01-13 06:55:00,
2013-01-13 02:00:00,45.9,39.4,29.18,North,0,0.0,3.6,78,0.08,,,0.10,WUHU21623XXSP,2013-01-13 07:00:00,
2013-01-13 02:05:00,45.7,39.6,29.18,NNE,22,0.0,0.0,79,0.08,,,0.10,WUHU21623XXSP,2013-01-13 07:05:00,
2013-01-13 02:10:00,45.5,39.4,29.17,NNE,22,0.0,0.0,79,0.06,,,0.10,WUHU21623XXSP,2013-01-13 07:10:00,
2013-01-13 02:15:00,45.5,39.4,29.17,NNE,22,0.0,0.0,79,0.06,,,0.10,WUHU21623XXSP,2013-01-13 07:15:00,
2013-01-13 02:20:00,45.3,39.2,29.17,NNE,22,2.2,2.2,79,0.04,,,0.10,WUHU21623XXSP,2013-01-13 07:20:00,
2013-01-13 02:25:00,45.0,38.9,29.17,NE,45,0.0,2.2,79,0.04,,,0.10,WUHU21623XXSP,2013-01-13 07:25:00,
2013-01-13 02:30:00,45.0,38.9,29.18,NNE,22,0.0,0.0,79,0.04,,,0.10,WUHU21623XXSP,2013-01-13 07:30:00,
2013-01-13 02:35:00,44.8,38.7,29.16,NNE,22,0.0,3.6,79,0.04,,,0.10,WUHU21623XXSP,2013-01-13 07:35:00,
2013-01-13 02:40:00,44.8,38.7,29.17,NNE,22,0.0,3.6,79,0.02,,,0.10,WUHU21623XXSP,2013-01-13 07:40:00,
2013-01-13 02:45:00,44.6,38.5,29.17,NE,45,0.0,0.0,79,0.02,,,0.10,WUHU21623XXSP,2013-01-13 07:45:00,
2013-01-13 02:50:00,44.2,38.1,29.17,NNW,337,1.8,1.8,79,0.04,,,0.13,WUHU21623XXSP,2013-01-13 07:50:00,
2013-01-13 02:55:00,44.2,38.1,29.18,NNE,22,0.2,3.4,79,0.02,,,0.13,WUHU21623XXSP,2013-01-13 07:55:00,
2013-01-13 03:00:00,44.2,38.1,29.18,North,0,1.1,3.4,79,0.02,,,0.13,WUHU21623XXSP,2013-01-13 08:00:00,
2013-01-13 03:05:00,43.9,37.8,29.19,NNE,22,0.0,4.7,79,0.02,,,0.13,WUHU21623XXSP,2013-01-13 08:05:00,
2013-01-13 03:10:00,43.7,37.9,29.19,North,0,9.6,9.6,80,0.02,,,0.13,WUHU21623XXSP,2013-01-13 08:10:00,
2013-01-13 03:15:00,43.7,37.9,29.19,NNW,337,6.3,9.6,80,0.02,,,0.13,WUHU21623XXSP,2013-01-13 08:15:00,
2013-01-13 03:20:00,43.7,37.9,29.18,North,0,0.0,6.3,80,0.04,,,0.13,WUHU21623XXSP,2013-01-13 08:20:00,
2013-01-13 03:25:00,43.5,37.8,29.19,NNW,337,0.0,2.2,80,0.04,,,0.15,WUHU21623XXSP,2013-01-13 08:25:00,
2013-01-13 03:30:00,43.5,38.1,29.18,NNE,22,0.0,0.4,81,0.06,,,0.17,WUHU21623XXSP,2013-01-13 08:30:00,
2013-01-13 03:35:00,43.2,37.7,29.18,NNW,337,2.0,2.0,81,0.06,,,0.17,WUHU21623XXSP,2013-01-13 08:35:00,
2013-01-13 03:40:00,43.0,37.8,29.18,NNW,337,10.5,11.4,82,0.06,,,0.17,WUHU21623XXSP,2013-01-13 08:40:00,
2013-01-13 03:45:00,42.6,37.5,29.16,NNE,22,0.0,11.4,82,0.06,,,0.17,WUHU21623XXSP,2013-01-13 08:45:00,
2013-01-13 03:50:00,42.6,37.5,29.16,NNW,337,0.7,5.6,82,0.06,,,0.19,WUHU21623XXSP,2013-01-13 08:50:00,
2013-01-13 03:55:00,42.4,37.3,29.17,North,0,0.7,0.7,82,0.08,,,0.19,WUHU21623XXSP,2013-01-13 08:55:00,
2013-01-13 04:00:00,42.4,37.6,29.16,NE,45,0.0,4.0,83,0.08,,,0.21,WUHU21623XXSP,2013-01-13 09:00:00,
2013-01-13 04:05:00,42.4,37.6,29.16,NE,45,0.0,4.0,83,0.08,,,0.21,WUHU21623XXSP,2013-01-13 09:05:00,
2013-01-13 04:10:00,42.4,37.6,29.16,North,0,1.6,1.6,83,0.08,,,0.21,WUHU21623XXSP,2013-01-13 09:10:00,
2013-01-13 04:15:00,41.9,37.1,29.17,NE,45,0.0,8.9,83,0.08,,,0.21,WUHU21623XXSP,2013-01-13 09:15:00,
2013-01-13 04:20:00,41.7,37.2,29.16,NNE,22,1.8,8.9,84,0.08,,,0.21,WUHU21623XXSP,2013-01-13 09:20:00,
2013-01-13 04:25:00,41.5,37.0,29.16,NNE,22,0.0,1.8,84,0.08,,,0.21,WUHU21623XXSP,2013-01-13 09:25:00,
2013-01-13 04:30:00,41.4,36.8,29.18,NW,315,0.0,6.0,84,0.08,,,0.23,WUHU21623XXSP,2013-01-13 09:30:00,
2013-01-13 04:35:00,41.2,36.6,29.17,North,0,3.1,9.2,84,0.06,,,0.23,WUHU21623XXSP,2013-01-13 09:35:00,
2013-01-13 04:40:00,41.2,36.6,29.17,North,0,0.9,9.2,84,0.06,,,0.23,WUHU21623XXSP,2013-01-13 09:40:00,
2013-01-13 04:45:00,41.0,36.8,29.16,NNW,337,4.0,4.0,85,0.08,,,0.23,WUHU21623XXSP,2013-01-13 09:45:00,
2013-01-13 04:50:00,40.6,36.4,29.16,WNW,292,0.0,4.0,85,0.08,,,0.25,WUHU21623XXSP,2013-01-13 09:50:00,
2013-01-13 04:55:00,40.6,36.4,29.16,NNW,337,0.0,0.0,85,0.08,,,0.25,WUHU21623XXSP,2013-01-13 09:55:00,
2013-01-13 05:00:00,40.5,36.2,29.16,NNE,22,0.0,6.9,85,0.08,,,0.27,WUHU21623XXSP,2013-01-13 10:00:00,
2013-01-13 05:05:00,40.5,36.2,29.16,North,0,4.3,6.9,85,0.06,,,0.27,WUHU21623XXSP,2013-01-13 10:05:00,
2013-01-13 05:10:00,40.3,36.1,29.16,NNW,337,7.4,11.9,85,0.06,,,0.27,WUHU21623XXSP,2013-01-13 10:10:00,
2013-01-13 05:15:00,40.3,36.1,29.17,NW,315,0.0,11.9,85,0.08,,,0.29,WUHU21623XXSP,2013-01-13 10:15:00,
2013-01-13 05:20:00,40.1,35.9,29.16,NNW,337,5.1,5.1,85,0.08,,,0.29,WUHU21623XXSP,2013-01-13 10:20:00,
2013-01-13 05:25:00,39.9,35.7,29.16,North,0,4.5,5.1,85,0.08,,,0.29,WUHU21623XXSP,2013-01-13 10:25:00,
2013-01-13 05:30:00,39.7,35.6,29.14,NNE,22,0.0,6.7,85,0.06,,,0.29,WUHU21623XXSP,2013-01-13 10:30:00,
2013-01-13 05:35:00,39.9,35.7,29.13,NNE,22,0.0,6.7,85,0.06,,,0.29,WUHU21623XXSP,2013-01-13 10:35:00,
2013-01-13 05:40:00,39.9,36.0,29.13,NE,45,0.0,4.9,86,0.08,,,0.31,WUHU21623XXSP,2013-01-13 10:40:00,
2013-01-13 05:45:00,39.7,35.9,29.12,ENE,67,4.5,4.5,86,0.06,,,0.31,WUHU21623XXSP,2013-01-13 10:45:00,
2013-01-13 05:50:00,39.7,35.9,29.11,NE,45,4.0,4.5,86,0.06,,,0.31,WUHU21623XXSP,2013-01-13 10:50:00,
2013-01-13 05:55:00,39.6,35.7,29.08,NNE,22,0.0,4.0,86,0.04,,,0.31,WUHU21623XXSP,2013-01-13 10:55:00,
2013-01-13 06:00:00,39.7,35.9,29.10,NNE,22,0.0,1.3,86,0.04,,,0.31,WUHU21623XXSP,2013-01-13 11:00:00,
2013-01-13 06:05:00,39.7,35.9,29.10,NNE,22,0.0,1.3,86,0.04,,,0.31,WUHU21623XXSP,2013-01-13 11:05:00,
2013-01-13 06:10:00,39.7,35.9,29.11,NNE,22,0.0,0.0,86,0.04,,,0.31,WUHU21623XXSP,2013-01-13 11:10:00,
2013-01-13 06:15:00,39.9,36.3,29.17,NNW,337,0.0,6.5,87,0.04,,,0.31,WUHU21623XXSP,2013-01-13 11:15:00,
2013-01-13 06:20:00,40.1,36.5,29.19,NW,315,0.0,6.5,87,0.02,,,0.31,WUHU21623XXSP,2013-01-13 11:20:00,
2013-01-13 06:25:00,40.1,36.5,29.18,WNW,292,0.0,0.0,87,0.02,,,0.31,WUHU21623XXSP,2013-01-13 11:25:00,
2013-01-13 06:30:00,40.1,36.8,29.17,NNW,337,0.0,0.0,88,0.02,,,0.31,WUHU21623XXSP,2013-01-13 11:30:00,
2013-01-13 06:35:00,40.3,37.0,29.17,North,0,0.0,2.5,88,0.02,,,0.31,WUHU21623XXSP,2013-01-13 11:35:00,
2013-01-13 06:40:00,40.5,37.1,29.17,NW,315,3.8,3.8,88,0.02,,,0.31,WUHU21623XXSP,2013-01-13 11:40:00,
2013-01-13 06:45:00,40.5,37.1,29.17,NNE,22,0.0,5.6,88,0.00,,,0.31,WUHU21623XXSP,2013-01-13 11:45:00,
2013-01-13 06:50:00,40.3,37.0,29.17,NE,45,0.0,5.6,88,0.00,,,0.31,WUHU21623XXSP,2013-01-13 11:50:00,
2013-01-13 06:55:00,40.3,37.0,29.17,NNW,337,0.0,3.6,88,0.00,,,0.31,WUHU21623XXSP,2013-01-13 11:55:00,
2013-01-13 07:00:00,40.3,36.7,29.18,NNW,337,0.0,2.5,87,0.00,,,0.31,WUHU21623XXSP,2013-01-13 12:00:00,
2013-01-13 07:05:00,40.3,36.7,29.18,North,0,3.6,3.6,87,0.00,,,0.31,WUHU21623XXSP,2013-01-13 12:05:00,
2013-01-13 07:10:00,40.3,36.7,29.18,NNE,22,0.0,7.2,87,0.00,,,0.31,WUHU21623XXSP,2013-01-13 12:10:00,
2013-01-13 07:15:00,40.3,36.7,29.19,NNW,337,0.0,7.2,87,0.00,,,0.31,WUHU21623XXSP,2013-01-13 12:15:00,
2013-01-13 07:20:00,40.1,36.5,29.19,NNE,22,0.0,0.0,87,0.00,,,0.31,WUHU21623XXSP,2013-01-13 12:20:00,
2013-01-13 07:25:00,40.1,36.5,29.18,North,0,0.0,2.0,87,0.00,,,0.31,WUHU21623XXSP,2013-01-13 12:25:00,
2013-01-13 07:30:00,40.3,36.7,29.18,NNE,22,0.0,2.0,87,0.00,,,0.31,WUHU21623XXSP,2013-01-13 12:30:00,
2013-01-13 07:35:00,40.5,36.8,29.18,NNE,22,0.0,0.0,87,0.00,,,0.31,WUHU21623XXSP,2013-01-13 12:35:00,
2013-01-13 07:40:00,40.6,37.0,29.17,NE,45,0.0,0.0,87,0.00,,,0.31,WUHU21623XXSP,2013-01-13 12:40:00,
2013-01-13 07:45:00,40.8,37.2,29.18,North,0,0.0,0.0,87,0.00,,,0.31,WUHU21623XXSP,2013-01-13 12:45:00,
2013-01-13 07:50:00,40.8,37.2,29.21,WNW,292,0.0,0.0,87,0.00,,,0.31,WUHU21623XXSP,2013-01-13 12:50:00,
2013-01-13 07:55:00,40.8,37.2,29.22,NW,315,0.0,0.0,87,0.00,,,0.31,WUHU21623XXSP,2013-01-13 12:55:00,
2013-01-13 08:00:00,40.6,37.0,29.21,NNE,22,0.0,0.0,87,0.00,,,0.31,WUHU21623XXSP,2013-01-13 13:00:00,
2013-01-13 08:05:00,40.6,37.0,29.21,NNE,22,0.0,0.0,87,0.00,,,0.31,WUHU21623XXSP,2013-01-13 13:05:00,
2013-01-13 08:10:00,40.6,36.7,29.21,NW,315,0.0,0.0,86,0.00,,,0.31,WUHU21623XXSP,2013-01-13 13:10:00,
2013-01-13 08:15:00,40.6,36.7,29.20,NE,45,0.0,0.0,86,0.00,,,0.31,WUHU21623XXSP,2013-01-13 13:15:00,
2013-01-13 08:20:00,41.0,37.1,29.19,NE,45,0.0,0.0,86,0.00,,,0.31,WUHU21623XXSP,2013-01-13 13:20:00,
2013-01-13 08:25:00,41.2,37.6,29.21,NNE,22,0.0,0.0,87,0.00,,,0.31,WUHU21623XXSP,2013-01-13 13:25:00,
2013-01-13 08:30:00,41.2,37.3,29.21,North,0,0.0,0.0,86,0.00,,,0.31,WUHU21623XXSP,2013-01-13 13:30:00,
2013-01-13 08:35:00,41.2,37.3,29.21,NNE,22,0.0,0.0,86,0.00,,,0.31,WUHU21623XXSP,2013-01-13 13:35:00,
2013-01-13 08:40:00,41.2,37.3,29.21,NNE,22,0.0,0.0,86,0.00,,,0.31,WUHU21623XXSP,2013-01-13 13:40:00,
2013-01-13 08:45:00,41.2,37.3,29.22,North,0,0.0,0.0,86,0.00,,,0.31,WUHU21623XXSP,2013-01-13 13:45:00,
2013-01-13 08:50:00,41.2,37.3,29.23,North,0,0.0,0.0,86,0.00,,,0.31,WUHU21623XXSP,2013-01-13 13:50:00,
2013-01-13 08:55:00,41.4,37.4,29.23,NNW,337,0.0,0.0,86,0.00,,,0.31,WUHU21623XXSP,2013-01-13 13:55:00,
2013-01-13 09:00:00,41.4,37.4,29.23,WNW,292,0.0,0.0,86,0.00,,,0.31,WUHU21623XXSP,2013-01-13 14:00:00,
2013-01-13 09:05:00,41.4,37.4,29.21,North,0,0.0,0.0,86,0.00,,,0.31,WUHU21623XXSP,2013-01-13 14:05:00,
2013-01-13 09:10:00,41.7,37.8,29.22,North,0,0.0,0.0,86,0.00,,,0.31,WUHU21623XXSP,2013-01-13 14:10:00,
2013-01-13 09:15:00,41.9,38.0,29.22,North,0,0.0,0.0,86,0.00,,,0.31,WUHU21623XXSP,2013-01-13 14:15:00,
2013-01-13 09:20:00,41.9,37.7,29.24,North,0,0.0,0.0,85,0.00,,,0.31,WUHU21623XXSP,2013-01-13 14:20:00,
2013-01-13 09:25:00,42.3,38.0,29.24,North,0,0.0,0.0,85,0.00,,,0.31,WUHU21623XXSP,2013-01-13 14:25:00,
2013-01-13 09:30:00,42.4,38.2,29.23,North,0,0.0,0.0,85,0.00,,,0.31,WUHU21623XXSP,2013-01-13 14:30:00,
2013-01-13 09:35:00,42.6,38.4,29.23,North,0,0.0,0.0,85,0.00,,,0.31,WUHU21623XXSP,2013-01-13 14:35:00,
2013-01-13 09:40:00,43.0,38.8,29.23,North,0,0.0,0.0,85,0.00,,,0.31,WUHU21623XXSP,2013-01-13 14:40:00,
2013-01-13 09:45:00,43.2,38.9,29.22,North,0,0.0,0.0,85,0.00,,,0.31,WUHU21623XXSP,2013-01-13 14:45:00,
2013-01-13 09:50:00,43.5,39.3,29.23,North,0,0.0,0.0,85,0.00,,,0.31,WUHU21623XXSP,2013-01-13 14:50:00,
2013-01-13 09:55:00,43.5,38.7,29.23,North,0,0.0,0.0,83,0.00,,,0.31,WUHU21623XXSP,2013-01-13 14:55:00,
2013-01-13 10:00:00,43.7,38.9,29.24,NW,315,0.0,0.0,83,0.00,,,0.31,WUHU21623XXSP,2013-01-13 15:00:00,
2013-01-13 10:05:00,43.7,38.9,29.24,NW,315,0.0,0.0,83,0.00,,,0.31,WUHU21623XXSP,2013-01-13 15:05:00,
2013-01-13 10:10:00,43.7,38.6,29.24,NNW,337,0.0,0.0,82,0.00,,,0.31,WUHU21623XXSP,2013-01-13 15:10:00,
2013-01-13 10:15:00,43.9,38.7,29.23,NW,315,0.0,0.0,82,0.00,,,0.31,WUHU21623XXSP,2013-01-13 15:15:00,
2013-01-13 10:20:00,44.1,38.9,29.24,NW,315,0.0,0.0,82,0.00,,,0.31,WUHU21623XXSP,2013-01-13 15:20:00,
2013-01-13 10:25:00,44.6,39.5,29.24,NW,315,0.0,0.0,82,0.00,,,0.31,WUHU21623XXSP,2013-01-13 15:25:00,
2013-01-13 10:30:00,44.4,39.0,29.23,NW,315,0.0,0.0,81,0.00,,,0.31,WUHU21623XXSP,2013-01-13 15:30:00,
2013-01-13 10:35:00,44.6,38.8,29.24,NW,315,0.0,0.0,80,0.00,,,0.31,WUHU21623XXSP,2013-01-13 15:35:00,
2013-01-13 10:40:00,44.8,39.0,29.24,NW,315,0.0,0.0,80,0.00,,,0.31,WUHU21623XXSP,2013-01-13 15:40:00,
2013-01-13 10:45:00,44.6,38.5,29.25,SW,225,3.6,3.6,79,0.00,,,0.31,WUHU21623XXSP,2013-01-13 15:45:00,
2013-01-13 10:50:00,44.6,38.2,29.24,West,270,0.0,3.6,78,0.00,,,0.31,WUHU21623XXSP,2013-01-13 15:50:00,
2013-01-13 10:55:00,44.2,37.5,29.25,West,270,0.0,0.0,77,0.00,,,0.31,WUHU21623XXSP,2013-01-13 15:55:00,
2013-01-13 11:00:00,44.1,37.0,29.25,West,270,0.0,0.0,76,0.00,,,0.31,WUHU21623XXSP,2013-01-13 16:00:00,
2013-01-13 11:05:00,44.1,37.0,29.24,West,270,0.0,0.0,76,0.00,,,0.31,WUHU21623XXSP,2013-01-13 16:05:00,
2013-01-13 11:10:00,44.1,37.0,29.25,WSW,247,1.3,1.3,76,0.00,,,0.31,WUHU21623XXSP,2013-01-13 16:10:00,
2013-01-13 11:15:00,44.1,37.0,29.26,WSW,247,2.0,2.0,76,0.00,,,0.31,WUHU21623XXSP,2013-01-13 16:15:00,
2013-01-13 11:20:00,43.3,35.9,29.25,West,270,0.0,2.0,75,0.00,,,0.31,WUHU21623XXSP,2013-01-13 16:20:00,
2013-01-13 11:25:00,43.0,35.9,29.26,WNW,292,0.0,1.8,76,0.00,,,0.31,WUHU21623XXSP,2013-01-13 16:25:00,
2013-01-13 11:30:00,43.0,35.9,29.25,West,270,0.0,0.0,76,0.00,,,0.31,WUHU21623XXSP,2013-01-13 16:30:00,
2013-01-13 11:35:00,42.6,36.2,29.25,West,270,0.0,0.0,77,0.00,,,0.31,WUHU21623XXSP,2013-01-13 16:35:00,
2013-01-13 11:40:00,42.4,35.7,29.25,West,270,0.0,0.0,77,0.00,,,0.31,WUHU21623XXSP,2013-01-13 16:40:00,
2013-01-13 11:45:00,42.4,35.7,29.25,West,270,0.0,0.0,77,0.00,,,0.31,WUHU21623XXSP,2013-01-13 16:45:00,
2013-01-13 11:50:00,42.4,35.7,29.25,West,270,1.3,1.3,77,0.00,,,0.31,WUHU21623XXSP,2013-01-13 16:50:00,
2013-01-13 11:55:00,42.4,36.0,29.25,West,270,0.0,1.8,78,0.00,,,0.31,WUHU21623XXSP,2013-01-13 16:55:00,
2013-01-13 12:00:00,42.3,35.9,29.25,WNW,292,0.0,1.8,78,0.00,,,0.31,WUHU21623XXSP,2013-01-13 17:00:00,
2013-01-13 12:05:00,42.3,35.9,29.25,WNW,292,0.0,0.0,78,0.00,,,0.31,WUHU21623XXSP,2013-01-13 17:05:00,
2013-01-13 12:10:00,42.3,35.9,29.25,WSW,247,0.0,0.0,78,0.00,,,0.31,WUHU21623XXSP,2013-01-13 17:10:00,
2013-01-13 12:15:00,42.4,36.0,29.25,West,270,0.0,0.0,78,0.00,,,0.31,WUHU21623XXSP,2013-01-13 17:15:00,
2013-01-13 12:20:00,42.4,36.0,29.25,WNW,292,2.5,2.5,78,0.00,,,0.31,WUHU21623XXSP,2013-01-13 17:20:00,
2013-01-13 12:25:00,42.4,36.0,29.25,West,270,0.0,2.5,78,0.00,,,0.31,WUHU21623XXSP,2013-01-13 17:25:00,
2013-01-13 12:30:00,42.3,35.9,29.25,West,270,0.0,3.1,78,0.00,,,0.31,WUHU21623XXSP,2013-01-13 17:30:00,
2013-01-13 12:35:00,42.3,35.9,29.24,West,270,0.0,3.1,78,0.00,,,0.31,WUHU21623XXSP,2013-01-13 17:35:00,
2013-01-13 12:40:00,42.3,35.9,29.24,WNW,292,0.0,0.0,78,0.00,,,0.31,WUHU21623XXSP,2013-01-13 17:40:00,
2013-01-13 12:45:00,42.4,36.4,29.24,West,270,0.0,0.0,79,0.00,,,0.31,WUHU21623XXSP,2013-01-13 17:45:00,
2013-01-13 12:50:00,42.4,36.4,29.24,WNW,292,1.1,4.0,79,0.00,,,0.31,WUHU21623XXSP,2013-01-13 17:50:00,
2013-01-13 12:55:00,42.4,36.4,29.21,NW,315,0.0,4.0,79,0.00,,,0.31,WUHU21623XXSP,2013-01-13 17:55:00,
2013-01-13 13:00:00,42.4,36.4,29.24,WSW,247,0.0,0.0,79,0.00,,,0.31,WUHU21623XXSP,2013-01-13 18:00:00,
2013-01-13 13:05:00,42.4,36.4,29.23,WSW,247,0.0,0.0,79,0.00,,,0.31,WUHU21623XXSP,2013-01-13 18:05:00,
2013-01-13 13:10:00,42.6,36.5,29.23,WNW,292,0.0,0.0,79,0.00,,,0.31,WUHU21623XXSP,2013-01-13 18:10:00,
2013-01-13 13:15:00,42.4,36.4,29.24,West,270,0.0,0.0,79,0.00,,,0.31,WUHU21623XXSP,2013-01-13 18:15:00,
2013-01-13 13:20:00,42.6,36.5,29.24,WSW,247,0.0,0.0,79,0.00,,,0.31,WUHU21623XXSP,2013-01-13 18:20:00,
2013-01-13 13:25:00,42.4,36.4,29.24,WSW,247,0.0,0.0,79,0.00,,,0.31,WUHU21623XXSP,2013-01-13 18:25:00,
2013-01-13 13:30:00,42.8,36.7,29.24,West,270,0.0,0.0,79,0.00,,,0.31,WUHU21623XXSP,2013-01-13 18:30:00,
2013-01-13 13:35:00,42.8,36.7,29.24,WNW,292,0.0,0.0,79,0.00,,,0.31,WUHU21623XXSP,2013-01-13 18:35:00,
2013-01-13 13:40:00,43.0,36.9,29.24,WNW,292,0.0,0.2,79,0.00,,,0.31,WUHU21623XXSP,2013-01-13 18:40:00,
2013-01-13 13:45:00,42.6,36.5,29.25,West,270,0.0,1.8,79,0.00,,,0.31,WUHU21623XXSP,2013-01-13 18:45:00,
2013-01-13 13:50:00,42.4,36.4,29.25,West,270,0.0,1.8,79,0.00,,,0.31,WUHU21623XXSP,2013-01-13 18:50:00,
2013-01-13 13:55:00,42.4,36.4,29.26,West,270,0.0,0.9,79,0.00,,,0.31,WUHU21623XXSP,2013-01-13 18:55:00,
2013-01-13 14:00:00,42.3,36.2,29.25,WNW,292,0.0,0.9,79,0.00,,,0.31,WUHU21623XXSP,2013-01-13 19:00:00,
2013-01-13 14:05:00,42.3,36.2,29.25,West,270,0.0,0.0,79,0.00,,,0.31,WUHU21623XXSP,2013-01-13 19:05:00,
2013-01-13 14:10:00,41.9,36.1,29.25,WNW,292,0.0,4.0,80,0.00,,,0.31,WUHU21623XXSP,2013-01-13 19:10:00,
2013-01-13 14:15:00,41.9,36.1,29.26,West,270,3.1,4.0,80,0.00,,,0.31,WUHU21623XXSP,2013-01-13 19:15:00,
2013-01-13 14:20:00,41.9,36.1,29.25,NNW,337,0.0,3.1,80,0.00,,,0.31,WUHU21623XXSP,2013-01-13 19:20:00,
2013-01-13 14:25:00,41.7,36.0,29.24,WNW,292,1.3,7.6,80,0.00,,,0.31,WUHU21623XXSP,2013-01-13 19:25:00,
2013-01-13 14:30:00,41.9,36.1,29.24,NNW,337,0.0,7.6,80,0.00,,,0.31,WUHU21623XXSP,2013-01-13 19:30:00,
2013-01-13 14:35:00,41.9,36.4,29.24,WNW,292,0.0,1.3,81,0.00,,,0.31,WUHU21623XXSP,2013-01-13 19:35:00,
2013-01-13 14:40:00,41.9,36.4,29.23,NNW,337,0.0,0.0,81,0.00,,,0.31,WUHU21623XXSP,2013-01-13 19:40:00,
2013-01-13 14:45:00,41.7,36.3,29.22,North,0,0.0,0.0,81,0.00,,,0.31,WUHU21623XXSP,2013-01-13 19:45:00,
2013-01-13 14:50:00,41.9,36.4,29.23,North,0,0.0,0.0,81,0.00,,,0.31,WUHU21623XXSP,2013-01-13 19:50:00,
2013-01-13 14:55:00,41.9,36.4,29.22,WNW,292,0.0,5.8,81,0.00,,,0.31,WUHU21623XXSP,2013-01-13 19:55:00,
2013-01-13 15:00:00,41.9,36.4,29.22,WNW,292,0.0,5.8,81,0.00,,,0.31,WUHU21623XXSP,2013-01-13 20:00:00,
2013-01-13 15:05:00,42.3,36.8,29.22,North,0,0.0,0.0,81,0.00,,,0.31,WUHU21623XXSP,2013-01-13 20:05:00,
2013-01-13 15:10:00,42.3,36.8,29.22,NNE,22,2.7,2.7,81,0.00,,,0.31,WUHU21623XXSP,2013-01-13 20:10:00,
2013-01-13 15:15:00,42.3,36.8,29.23,North,0,0.0,2.7,81,0.00,,,0.31,WUHU21623XXSP,2013-01-13 20:15:00,
2013-01-13 15:20:00,42.4,37.0,29.24,NNW,337,0.0,0.0,81,0.00,,,0.31,WUHU21623XXSP,2013-01-13 20:20:00,
2013-01-13 15:25:00,42.4,37.0,29.25,WNW,292,0.0,0.0,81,0.00,,,0.31,WUHU21623XXSP,2013-01-13 20:25:00,
2013-01-13 15:30:00,42.4,36.7,29.25,NNW,337,0.0,0.0,80,0.00,,,0.31,WUHU21623XXSP,2013-01-13 20:30:00,
2013-01-13 15:35:00,42.4,36.7,29.26,NW,315,0.0,0.0,80,0.00,,,0.31,WUHU21623XXSP,2013-01-13 20:35:00,
2013-01-13 15:40:00,42.4,36.7,29.26,NNW,337,0.0,1.3,80,0.00,,,0.31,WUHU21623XXSP,2013-01-13 20:40:00,
2013-01-13 15:45:00,42.3,36.5,29.26,North,0,4.7,4.7,80,0.00,,,0.31,WUHU21623XXSP,2013-01-13 20:45:00,
2013-01-13 15:50:00,42.1,36.0,29.27,NNW,337,0.0,4.7,79,0.00,,,0.31,WUHU21623XXSP,2013-01-13 20:50:00,
2013-01-13 15:55:00,41.9,35.8,29.28,WNW,292,0.0,1.6,79,0.00,,,0.31,WUHU21623XXSP,2013-01-13 20:55:00,
2013-01-13 16:00:00,41.7,35.6,29.27,NW,315,0.9,1.6,79,0.00,,,0.31,WUHU21623XXSP,2013-01-13 21:00:00,
2013-01-13 16:05:00,41.5,35.8,29.28,NNW,337,0.0,4.9,80,0.00,,,0.31,WUHU21623XXSP,2013-01-13 21:05:00,
2013-01-13 16:10:00,41.2,35.4,29.28,West,270,1.8,4.9,80,0.00,,,0.31,WUHU21623XXSP,2013-01-13 21:10:00,
2013-01-13 16:15:00,41.2,35.4,29.30,NNW,337,0.0,3.6,80,0.00,,,0.31,WUHU21623XXSP,2013-01-13 21:15:00,
2013-01-13 16:20:00,40.6,34.9,29.30,WNW,292,0.0,6.0,80,0.00,,,0.31,WUHU21623XXSP,2013-01-13 21:20:00,
2013-01-13 16:25:00,40.6,34.9,29.30,NNW,337,0.0,6.0,80,0.00,,,0.31,WUHU21623XXSP,2013-01-13 21:25:00,
2013-01-13 16:30:00,40.5,34.8,29.31,NW,315,0.0,7.4,80,0.00,,,0.31,WUHU21623XXSP,2013-01-13 21:30:00,
2013-01-13 16:35:00,40.3,34.6,29.31,NNW,337,0.0,7.4,80,0.00,,,0.31,WUHU21623XXSP,2013-01-13 21:35:00,
2013-01-13 16:40:00,40.1,34.4,29.31,WNW,292,0.0,4.9,80,0.00,,,0.31,WUHU21623XXSP,2013-01-13 21:40:00,
2013-01-13 16:45:00,39.9,34.6,29.30,NNW,337,0.0,4.9,81,0.00,,,0.31,WUHU21623XXSP,2013-01-13 21:45:00,
2013-01-13 16:50:00,40.1,34.7,29.30,North,0,0.0,0.0,81,0.00,,,0.31,WUHU21623XXSP,2013-01-13 21:50:00,
2013-01-13 16:55:00,40.1,34.7,29.30,North,0,0.0,0.0,81,0.00,,,0.31,WUHU21623XXSP,2013-01-13 21:55:00,
2013-01-13 17:00:00,39.9,34.6,29.30,NNW,337,0.0,0.0,81,0.00,,,0.31,WUHU21623XXSP,2013-01-13 22:00:00,
2013-01-13 17:05:00,39.7,34.7,29.30,WNW,292,0.0,0.0,82,0.00,,,0.31,WUHU21623XXSP,2013-01-13 22:05:00,
2013-01-13 17:10:00,39.6,34.5,29.31,WNW,292,0.0,0.0,82,0.00,,,0.31,WUHU21623XXSP,2013-01-13 22:10:00,
2013-01-13 17:15:00,39.6,34.5,29.30,NW,315,1.8,1.8,82,0.00,,,0.31,WUHU21623XXSP,2013-01-13 22:15:00,
2013-01-13 17:20:00,39.4,34.4,29.30,WNW,292,0.0,1.8,82,0.00,,,0.31,WUHU21623XXSP,2013-01-13 22:20:00,
2013-01-13 17:25:00,39.4,34.4,29.30,WNW,292,0.0,0.0,82,0.02,,,0.31,WUHU21623XXSP,2013-01-13 22:25:00,
2013-01-13 17:30:00,39.2,34.2,29.30,WNW,292,0.0,0.0,82,0.02,,,0.33,WUHU21623XXSP,2013-01-13 22:30:00,
2013-01-13 17:35:00,39.0,34.0,29.30,NNW,337,0.0,0.0,82,0.02,,,0.33,WUHU21623XXSP,2013-01-13 22:35:00,
2013-01-13 17:40:00,39.0,34.0,29.31,WNW,292,0.0,0.0,82,0.02,,,0.33,WUHU21623XXSP,2013-01-13 22:40:00,
2013-01-13 17:45:00,39.0,34.0,29.31,NNW,337,0.0,0.0,82,0.02,,,0.33,WUHU21623XXSP,2013-01-13 22:45:00,
2013-01-13 17:50:00,39.0,34.0,29.31,WNW,292,0.0,0.0,82,0.02,,,0.33,WUHU21623XXSP,2013-01-13 22:50:00,
2013-01-13 17:55:00,38.8,34.1,29.30,WNW,292,0.0,0.0,83,0.02,,,0.33,WUHU21623XXSP,2013-01-13 22:55:00,
2013-01-13 18:00:00,39.0,34.3,29.30,WNW,292,0.0,0.0,83,0.02,,,0.33,WUHU21623XXSP,2013-01-13 23:00:00,
2013-01-13 18:05:00,39.2,34.5,29.30,WNW,292,0.0,0.0,83,0.02,,,0.33,WUHU21623XXSP,2013-01-13 23:05:00,
2013-01-13 18:10:00,39.4,34.6,29.29,WNW,292,0.0,0.0,83,0.02,,,0.33,WUHU21623XXSP,2013-01-13 23:10:00,
2013-01-13 18:15:00,39.4,34.6,29.28,WNW,292,0.0,0.0,83,0.02,,,0.33,WUHU21623XXSP,2013-01-13 23:15:00,
2013-01-13 18:20:00,39.6,34.8,29.27,WNW,292,0.0,0.0,83,0.02,,,0.33,WUHU21623XXSP,2013-01-13 23:20:00,
2013-01-13 18:25:00,39.6,34.8,29.27,WNW,292,0.0,0.0,83,0.00,,,0.33,WUHU21623XXSP,2013-01-13 23:25:00,
2013-01-13 18:30:00,39.7,35.0,29.27,WNW,292,0.0,0.0,83,0.00,,,0.33,WUHU21623XXSP,2013-01-13 23:30:00,
2013-01-13 18:35:00,39.9,35.1,29.30,WNW,292,0.0,0.0,83,0.00,,,0.33,WUHU21623XXSP,2013-01-13 23:35:00,
2013-01-13 18:40:00,39.6,34.8,29.29,WNW,292,0.0,0.0,83,0.00,,,0.33,WUHU21623XXSP,2013-01-13 23:40:00,
2013-01-13 18:45:00,39.6,34.8,29.28,WNW,292,0.0,0.0,83,0.00,,,0.33,WUHU21623XXSP,2013-01-13 23:45:00,
2013-01-13 18:50:00,39.9,35.1,29.28,WNW,292,0.0,0.0,83,0.00,,,0.33,WUHU21623XXSP,2013-01-13 23:50:00,
2013-01-13 18:55:00,39.6,34.8,29.29,WNW,292,0.0,0.0,83,0.00,,,0.33,WUHU21623XXSP,2013-01-13 23:55:00,
2013-01-13 19:00:00,39.6,34.8,29.30,West,270,0.0,0.0,83,0.00,,,0.33,WUHU21623XXSP,2013-01-14 00:00:00,
2013-01-13 19:05:00,39.4,34.6,29.28,WSW,247,0.0,0.0,83,0.00,,,0.33,WUHU21623XXSP,2013-01-14 00:05:00,
2013-01-13 19:10:00,39.0,34.3,29.29,WSW,247,0.0,0.0,83,0.00,,,0.33,WUHU21623XXSP,2013-01-14 00:10:00,
2013-01-13 19:15:00,38.7,33.9,29.30,WSW,247,0.0,0.0,83,0.00,,,0.33,WUHU21623XXSP,2013-01-14 00:15:00,
2013-01-13 19:20:00,38.7,33.9,29.29,WSW,247,0.0,0.0,83,0.00,,,0.33,WUHU21623XXSP,2013-01-14 00:20:00,
2013-01-13 19:25:00,38.5,33.8,29.29,WSW,247,0.0,0.0,83,0.00,,,0.33,WUHU21623XXSP,2013-01-14 00:25:00,
2013-01-13 19:30:00,38.5,34.1,29.30,SW,225,0.0,0.0,84,0.00,,,0.33,WUHU21623XXSP,2013-01-14 00:30:00,
2013-01-13 19:35:00,38.3,33.9,29.30,WSW,247,0.0,0.0,84,0.00,,,0.33,WUHU21623XXSP,2013-01-14 00:35:00,
2013-01-13 19:40:00,38.3,33.9,29.29,West,270,0.0,0.0,84,0.00,,,0.33,WUHU21623XXSP,2013-01-14 00:40:00,
2013-01-13 19:45:00,38.1,33.7,29.29,WSW,247,0.0,0.0,84,0.00,,,0.33,WUHU21623XXSP,2013-01-14 00:45:00,
2013-01-13 19:50:00,38.1,34.0,29.28,West,270,0.0,0.0,85,0.00,,,0.33,WUHU21623XXSP,2013-01-14 00:50:00,
2013-01-13 19:55:00,37.9,33.8,29.28,WSW,247,0.0,0.0,85,0.00,,,0.33,WUHU21623XXSP,2013-01-14 00:55:00,
2013-01-13 20:00:00,37.8,33.6,29.28,WSW,247,0.0,0.0,85,0.00,,,0.33,WUHU21623XXSP,2013-01-14 01:00:00,
2013-01-13 20:05:00,37.8,33.6,29.28,West,270,0.0,0.0,85,0.00,,,0.33,WUHU21623XXSP,2013-01-14 01:05:00,
2013-01-13 20:10:00,37.8,33.6,29.29,WSW,247,0.0,0.0,85,0.00,,,0.33,WUHU21623XXSP,2013-01-14 01:10:00,
2013-01-13 20:15:00,37.8,33.9,29.31,WSW,247,3.4,3.4,86,0.00,,,0.33,WUHU21623XXSP,2013-01-14 01:15:00,
2013-01-13 20:20:00,37.6,33.7,29.31,West,270,0.0,3.4,86,0.00,,,0.33,WUHU21623XXSP,2013-01-14 01:20:00,
2013-01-13 20:25:00,37.6,33.7,29.31,West,270,0.0,1.1,86,0.00,,,0.33,WUHU21623XXSP,2013-01-14 01:25:00,
2013-01-13 20:30:00,37.4,33.5,29.30,West,270,0.0,0.9,86,0.00,,,0.33,WUHU21623XXSP,2013-01-14 01:30:00,
2013-01-13 20:35:00,37.2,33.4,29.30,West,270,0.0,0.0,86,0.00,,,0.33,WUHU21623XXSP,2013-01-14 01:35:00,
2013-01-13 20:40:00,37.2,33.7,29.30,WNW,292,0.0,0.9,87,0.00,,,0.33,WUHU21623XXSP,2013-01-14 01:40:00,
2013-01-13 20:45:00,37.2,33.7,29.30,West,270,0.0,3.8,87,0.00,,,0.33,WUHU21623XXSP,2013-01-14 01:45:00,
2013-01-13 20:50:00,36.9,33.3,29.30,WNW,292,0.0,6.3,87,0.00,,,0.33,WUHU21623XXSP,2013-01-14 01:50:00,
2013-01-13 20:55:00,36.9,33.3,29.31,West,270,0.0,6.3,87,0.00,,,0.33,WUHU21623XXSP,2013-01-14 01:55:00,
2013-01-13 21:00:00,36.7,33.1,29.31,WSW,247,0.0,3.1,87,0.00,,,0.33,WUHU21623XXSP,2013-01-14 02:00:00,
2013-01-13 21:05:00,36.5,32.9,29.31,WSW,247,0.0,0.0,87,0.00,,,0.33,WUHU21623XXSP,2013-01-14 02:05:00,
2013-01-13 21:10:00,36.5,32.9,29.32,WNW,292,0.0,0.0,87,0.00,,,0.33,WUHU21623XXSP,2013-01-14 02:10:00,
2013-01-13 21:15:00,36.1,32.6,29.32,West,270,0.0,6.3,87,0.00,,,0.33,WUHU21623XXSP,2013-01-14 02:15:00,
2013-01-13 21:20:00,36.0,32.4,29.33,West,270,4.3,6.3,87,0.00,,,0.33,WUHU21623XXSP,2013-01-14 02:20:00,
2013-01-13 21:25:00,36.0,32.4,29.33,West,270,6.3,6.3,87,0.00,,,0.33,WUHU21623XXSP,2013-01-14 02:25:00,
2013-01-13 21:30:00,35.8,32.2,29.33,WNW,292,0.0,6.3,87,0.00,,,0.33,WUHU21623XXSP,2013-01-14 02:30:00,
2013-01-13 21:35:00,35.8,32.2,29.33,WNW,292,0.0,6.0,87,0.00,,,0.33,WUHU21623XXSP,2013-01-14 02:35:00,
2013-01-13 21:40:00,35.4,31.9,29.34,West,270,0.0,0.7,87,0.00,,,0.33,WUHU21623XXSP,2013-01-14 02:40:00,
2013-01-13 21:45:00,35.2,31.7,29.33,West,270,4.5,6.0,87,0.00,,,0.33,WUHU21623XXSP,2013-01-14 02:45:00,
2013-01-13 21:50:00,35.1,31.5,29.33,West,270,0.0,6.0,87,0.00,,,0.33,WUHU21623XXSP,2013-01-14 02:50:00,
2013-01-13 21:55:00,35.1,31.5,29.33,West,270,6.3,6.3,87,0.00,,,0.33,WUHU21623XXSP,2013-01-14 02:55:00,
2013-01-13 22:00:00,34.7,31.1,29.34,West,270,0.0,6.3,87,0.00,,,0.33,WUHU21623XXSP,2013-01-14 03:00:00,
2013-01-13 22:05:00,34.7,31.1,29.34,West,270,0.0,1.8,87,0.00,,,0.33,WUHU21623XXSP,2013-01-14 03:05:00,
2013-01-13 22:10:00,34.7,31.1,29.34,West,270,0.0,0.0,87,0.00,,,0.33,WUHU21623XXSP,2013-01-14 03:10:00,
2013-01-13 22:15:00,34.7,31.1,29.35,West,270,5.8,5.8,87,0.00,,,0.33,WUHU21623XXSP,2013-01-14 03:15:00,
2013-01-13 22:20:00,34.5,31.0,29.34,West,270,0.0,5.8,87,0.00,,,0.33,WUHU21623XXSP,2013-01-14 03:20:00,
2013-01-13 22:25:00,34.5,31.0,29.35,West,270,0.0,4.9,87,0.00,,,0.33,WUHU21623XXSP,2013-01-14 03:25:00,
2013-01-13 22:30:00,34.2,30.3,29.35,West,270,5.4,5.4,86,0.00,,,0.33,WUHU21623XXSP,2013-01-14 03:30:00,
2013-01-13 22:35:00,34.2,30.3,29.34,WNW,292,0.0,5.4,86,0.00,,,0.33,WUHU21623XXSP,2013-01-14 03:35:00,
2013-01-13 22:40:00,34.2,30.3,29.34,WNW,292,1.8,4.0,86,0.00,,,0.33,WUHU21623XXSP,2013-01-14 03:40:00,
2013-01-13 22:45:00,34.0,30.1,29.34,WNW,292,0.0,1.8,86,0.00,,,0.33,WUHU21623XXSP,2013-01-14 03:45:00,
2013-01-13 22:50:00,34.0,30.1,29.34,West,270,3.4,3.4,86,0.00,,,0.33,WUHU21623XXSP,2013-01-14 03:50:00,
2013-01-13 22:55:00,34.0,30.1,29.34,WSW,247,0.0,3.4,86,0.00,,,0.33,WUHU21623XXSP,2013-01-14 03:55:00,
2013-01-13 23:00:00,33.8,29.9,29.35,WNW,292,0.0,0.0,86,0.00,,,0.33,WUHU21623XXSP,2013-01-14 04:00:00,
2013-01-13 23:05:00,34.0,30.1,29.36,West,270,0.0,0.0,86,0.00,,,0.33,WUHU21623XXSP,2013-01-14 04:05:00,
2013-01-13 23:10:00,33.8,29.9,29.36,WNW,292,8.7,8.7,86,0.00,,,0.33,WUHU21623XXSP,2013-01-14 04:10:00,
2013-01-13 23:15:00,33.4,29.3,29.37,West,270,0.0,8.7,85,0.00,,,0.33,WUHU21623XXSP,2013-01-14 04:15:00,
2013-01-13 23:19:00,33.4,29.3,29.37,West,270,5.1,6.0,85,0.00,,,0.33,WUHU21623XXSP,2013-01-14 04:19:00,
2013-01-13 23:25:00,33.3,28.9,29.37,NW,315,5.6,6.0,84,0.00,,,0.33,WUHU21623XXSP,2013-01-14 04:25:00,
2013-01-13 23:30:00,33.1,28.7,29.37,West,270,4.3,5.6,84,0.00,,,0.33,WUHU21623XXSP,2013-01-14 04:30:00,
2013-01-13 23:35:00,33.1,28.7,29.38,West,270,2.0,4.3,84,0.00,,,0.33,WUHU21623XXSP,2013-01-14 04:35:00,
2013-01-13 23:39:00,32.9,28.3,29.38,WSW,247,3.8,3.8,83,0.00,,,0.33,WUHU21623XXSP,2013-01-14 04:39:00,
2013-01-13 23:45:00,32.9,28.3,29.38,WSW,247,5.8,5.8,83,0.00,,,0.33,WUHU21623XXSP,2013-01-14 04:45:00,
2013-01-13 23:50:00,32.7,27.8,29.39,West,270,0.0,6.9,82,0.00,,,0.33,WUHU21623XXSP,2013-01-14 04:50:00,
2013-01-13 23:55:00,32.7,27.8,29.39,West,270,0.0,6.9,82,0.00,,,0.33,WUHU21623XXSP,2013-01-14 04:55:00,